Time;durP1;ratioP1;P1;durP2;ratioP2;P2;SDS_P1;SDS_P2;PMS_P1;PMS_P2;Temp;Humidity;BMP_temperature;BMP_pressure;BME280_temperature;BME280_humidity;BME280_pressure;Samples;Min_cycle;Max_cycle;Signal;HPM_P1;HPM_P2
2022/12/23 00:01:50;;;;;;;;;;;25.50;99.90;;;;;;5012785;28;20353;-67
2022/12/23 00:04:16;;;;;;;;;;;25.60;99.90;;;;;;5012939;28;19910;-72
2022/12/23 00:06:43;;;;;;;;;;;25.50;99.90;;;;;;5013063;28;20352;-68
2022/12/23 00:09:09;;;;;;;;;;;25.40;99.90;;;;;;5013032;28;20044;-77
2022/12/23 00:15:03;;;;;;;;;;;25.60;99.90;;;;;;5012722;28;19980;-74
2022/12/23 00:17:27;;;;;;;;;;;25.40;99.90;;;;;;4971565;28;19910;-70
2022/12/23 00:19:54;;;;;;;;;;;25.70;99.90;;;;;;4971816;28;19914;-61
2022/12/23 00:23:03;;;;;;;;;;;26.00;99.90;;;;;;4991377;28;20236;-72
2022/12/23 00:25:07;;;;;;;;;;;26.30;99.90;;;;;;5012709;28;19989;-69
2022/12/23 00:27:33;;;;;;;;;;;26.40;99.90;;;;;;5012722;28;19909;-63
2022/12/23 00:30:00;;;;;;;;;;;26.30;99.90;;;;;;5012959;28;19909;-63
2022/12/23 00:32:27;;;;;;;;;;;26.30;99.90;;;;;;5012721;28;19917;-67
2022/12/23 00:34:53;;;;;;;;;;;26.40;99.90;;;;;;5012621;28;19913;-70
2022/12/23 00:37:20;;;;;;;;;;;26.80;99.90;;;;;;5012464;28;19952;-76
2022/12/23 00:45:16;;;;;;;;;;;26.90;99.90;;;;;;5012672;28;20431;-64
2022/12/23 00:50:28;;;;;;;;;;;26.90;99.90;;;;;;5013094;28;19917;-64
2022/12/23 00:52:55;;;;;;;;;;;26.90;99.90;;;;;;5012727;28;19925;-68
2022/12/23 00:55:22;;;;;;;;;;;27.30;99.90;;;;;;5012787;28;19909;-71
2022/12/23 00:57:48;;;;;;;;;;;27.70;99.90;;;;;;5011554;28;19910;-71
2022/12/23 01:00:15;;;;;;;;;;;27.60;99.90;;;;;;5015198;28;19968;-74
2022/12/23 01:05:35;;;;;;;;;;;27.80;99.90;;;;;;5015945;28;19971;-67
2022/12/23 01:08:03;;;;;;;;;;;28.60;99.90;;;;;;5016279;28;19910;-74
2022/12/23 01:10:30;;;;;;;;;;;29.00;98.90;;;;;;5016183;28;19916;-75
2022/12/23 01:12:56;;;;;;;;;;;28.70;99.50;;;;;;5016419;28;19933;-76
2022/12/23 01:15:23;;;;;;;;;;;29.00;99.10;;;;;;5016712;28;20377;-78
2022/12/23 01:17:50;;;;;;;;;;;28.80;99.10;;;;;;5016652;28;20288;-72
2022/12/23 01:20:16;;;;;;;;;;;29.00;99.40;;;;;;5016982;28;19921;-70
2022/12/23 01:22:43;;;;;;;;;;;29.50;98.70;;;;;;5017036;28;20356;-73
2022/12/23 01:25:10;;;;;;;;;;;29.40;97.90;;;;;;5017113;28;19909;-73
2022/12/23 01:27:36;;;;;;;;;;;29.60;98.70;;;;;;5016774;28;19913;-69
2022/12/23 01:30:03;;;;;;;;;;;30.00;98.50;;;;;;5016343;28;20344;-63
2022/12/23 01:32:30;;;;;;;;;;;29.80;97.80;;;;;;5015862;28;19910;-62
2022/12/23 01:34:57;;;;;;;;;;;29.20;97.70;;;;;;5015782;28;19913;-71
2022/12/23 01:37:23;;;;;;;;;;;29.50;97.40;;;;;;5015053;28;19953;-71
2022/12/23 01:39:50;;;;;;;;;;;29.70;97.50;;;;;;5015597;28;19909;-69
2022/12/23 01:45:05;;;;;;;;;;;30.20;97.60;;;;;;5015954;28;19979;-73
2022/12/23 01:47:32;;;;;;;;;;;30.40;97.10;;;;;;5015160;28;19910;-71
2022/12/23 01:50:02;;;;;;;;;;;30.10;96.70;;;;;;5014289;28;20423;-69
2022/12/23 01:52:31;;;;;;;;;;;29.80;97.60;;;;;;5014768;28;19913;-67
2022/12/23 01:54:57;;;;;;;;;;;29.60;97.80;;;;;;5015323;28;19929;-70
2022/12/23 01:57:24;;;;;;;;;;;29.30;97.80;;;;;;5014878;28;20057;-62
2022/12/23 02:05:21;;;;;;;;;;;28.30;98.40;;;;;;5015156;28;19916;-73
2022/12/23 02:10:54;;;;;;;;;;;28.20;98.10;;;;;;5013982;28;20279;-69
2022/12/23 02:16:15;;;;;;;;;;;28.30;98.80;;;;;;4974642;28;20340;-67
2022/12/23 02:16:35;;;;;;;;;;;28.30;98.70;;;;;;5014795;28;19909;-73
2022/12/23 02:19:17;;;;;;;;;;;28.20;99.00;;;;;;5014869;28;19917;-70
2022/12/23 02:21:48;;;;;;;;;;;28.20;99.90;;;;;;5014403;28;20288;-64
2022/12/23 02:24:17;;;;;;;;;;;28.00;99.90;;;;;;5014626;28;19920;-76
2022/12/23 02:26:55;;;;;;;;;;;28.20;99.90;;;;;;5014627;28;19996;-63
2022/12/23 02:29:37;;;;;;;;;;;28.20;99.90;;;;;;5014374;28;20353;-64
2022/12/23 02:32:10;;;;;;;;;;;27.90;99.90;;;;;;5014176;28;19910;-63
2022/12/23 02:34:55;;;;;;;;;;;27.70;99.90;;;;;;5014399;28;19910;-73
2022/12/23 02:37:37;;;;;;;;;;;27.60;99.90;;;;;;5014230;28;19917;-62
2022/12/23 02:40:06;;;;;;;;;;;27.50;99.90;;;;;;5014399;28;20364;-66
2022/12/23 02:42:36;;;;;;;;;;;27.40;99.90;;;;;;5013999;28;19917;-69
2022/12/23 02:45:08;;;;;;;;;;;27.30;99.90;;;;;;5014088;28;19932;-69
2022/12/23 02:47:58;;;;;;;;;;;27.20;99.90;;;;;;5013856;28;19913;-70
2022/12/23 02:50:29;;;;;;;;;;;27.10;99.90;;;;;;4977153;28;20327;-70
2022/12/23 02:52:58;;;;;;;;;;;26.90;99.90;;;;;;5013609;28;19917;-63
2022/12/23 02:55:35;;;;;;;;;;;26.80;99.90;;;;;;5013923;28;19944;-66
2022/12/23 02:58:08;;;;;;;;;;;26.60;99.90;;;;;;5013940;28;19975;-66
2022/12/23 03:00:35;;;;;;;;;;;26.50;99.90;;;;;;5012648;28;19989;-66
2022/12/23 03:03:02;;;;;;;;;;;26.30;99.90;;;;;;5013768;28;19925;-68
2022/12/23 03:05:32;;;;;;;;;;;26.30;99.90;;;;;;5013205;28;20009;-66
2022/12/23 03:08:01;;;;;;;;;;;26.40;99.90;;;;;;5013894;28;19916;-69
2022/12/23 03:10:48;;;;;;;;;;;26.30;99.90;;;;;;5013824;28;19910;-68
2022/12/23 03:13:25;;;;;;;;;;;26.50;99.90;;;;;;5012767;28;20359;-61
2022/12/23 03:16:10;;;;;;;;;;;26.20;99.90;;;;;;5013379;28;19909;-61
2022/12/23 03:18:46;;;;;;;;;;;26.10;99.90;;;;;;5013419;28;19909;-61
2022/12/23 03:21:16;;;;;;;;;;;26.10;99.90;;;;;;5013128;28;19914;-62
2022/12/23 03:23:49;;;;;;;;;;;26.10;99.90;;;;;;5013157;28;20280;-61
2022/12/23 03:26:18;;;;;;;;;;;26.10;99.90;;;;;;5013327;28;19964;-61
2022/12/23 03:29:08;;;;;;;;;;;26.00;99.90;;;;;;5013341;28;19916;-62
2022/12/23 03:31:34;;;;;;;;;;;26.00;99.90;;;;;;5013024;28;19914;-61
2022/12/23 03:34:03;;;;;;;;;;;26.20;99.90;;;;;;5013221;28;19910;-63
2022/12/23 03:36:52;;;;;;;;;;;26.20;99.90;;;;;;5013103;28;19910;-68
2022/12/23 03:39:20;;;;;;;;;;;26.20;99.90;;;;;;5002834;28;19909;-67
2022/12/23 03:41:49;;;;;;;;;;;26.20;99.90;;;;;;5013151;28;19924;-70
2022/12/23 03:44:19;;;;;;;;;;;26.00;99.90;;;;;;5013378;28;19909;-62
2022/12/23 03:46:48;;;;;;;;;;;25.80;99.90;;;;;;5013141;28;20012;-69
2022/12/23 03:49:16;;;;;;;;;;;25.60;99.90;;;;;;5012953;28;19920;-64
2022/12/23 03:51:46;;;;;;;;;;;25.50;99.90;;;;;;5012905;28;20268;-63
2022/12/23 03:54:18;;;;;;;;;;;25.40;99.90;;;;;;5012685;28;19983;-62
2022/12/23 03:56:47;;;;;;;;;;;25.40;99.90;;;;;;4995316;28;20000;-66
2022/12/23 03:59:16;;;;;;;;;;;25.50;99.90;;;;;;5012863;28;20438;-71
2022/12/23 04:02:01;;;;;;;;;;;25.60;99.90;;;;;;5012652;28;20009;-66
2022/12/23 04:04:48;;;;;;;;;;;26.00;99.90;;;;;;5012935;28;19925;-72
2022/12/23 04:07:23;;;;;;;;;;;26.10;99.90;;;;;;5012172;28;19920;-71
2022/12/23 04:09:51;;;;;;;;;;;26.00;99.90;;;;;;5012999;28;19910;-72
2022/12/23 04:12:18;;;;;;;;;;;25.90;99.90;;;;;;5012756;28;19945;-62
2022/12/23 04:14:46;;;;;;;;;;;25.90;99.90;;;;;;5012812;28;19913;-64
2022/12/23 04:17:13;;;;;;;;;;;25.90;99.90;;;;;;5012679;28;19920;-70
2022/12/23 04:19:41;;;;;;;;;;;26.00;99.90;;;;;;5012525;28;19921;-69
2022/12/23 04:22:07;;;;;;;;;;;26.10;99.90;;;;;;5012486;28;19917;-66
2022/12/23 04:24:34;;;;;;;;;;;26.00;99.90;;;;;;5012690;28;20000;-62
2022/12/23 04:27:00;;;;;;;;;;;26.10;99.90;;;;;;5012728;28;19909;-73
2022/12/23 04:29:27;;;;;;;;;;;26.10;99.90;;;;;;5012551;28;20429;-69
2022/12/23 04:31:54;;;;;;;;;;;26.00;99.90;;;;;;5012586;28;20216;-74
2022/12/23 04:34:20;;;;;;;;;;;25.80;99.90;;;;;;5013926;28;19937;-73
2022/12/23 04:36:47;;;;;;;;;;;25.70;99.90;;;;;;5016346;28;19909;-70
2022/12/23 04:39:14;;;;;;;;;;;25.60;99.90;;;;;;5016477;28;19972;-76
2022/12/23 04:41:40;;;;;;;;;;;25.50;99.90;;;;;;5015532;28;20044;-64
2022/12/23 04:44:07;;;;;;;;;;;25.60;99.90;;;;;;5016450;28;20000;-63
2022/12/23 04:46:34;;;;;;;;;;;25.60;99.90;;;;;;5016440;28;19932;-69
2022/12/23 04:49:00;;;;;;;;;;;25.50;99.90;;;;;;5016459;28;20432;-61
2022/12/23 04:51:27;;;;;;;;;;;25.30;99.90;;;;;;5016123;28;19909;-71
2022/12/23 04:53:53;;;;;;;;;;;25.30;99.90;;;;;;5015961;28;20051;-72
2022/12/23 04:56:20;;;;;;;;;;;25.40;99.90;;;;;;5016288;28;19909;-61
2022/12/23 04:58:47;;;;;;;;;;;25.60;99.90;;;;;;5016120;28;19909;-71
2022/12/23 05:01:13;;;;;;;;;;;25.60;99.90;;;;;;5016174;28;20040;-68
2022/12/23 05:03:40;;;;;;;;;;;25.50;99.90;;;;;;5015713;28;20019;-64
2022/12/23 05:06:07;;;;;;;;;;;25.30;99.90;;;;;;5015670;28;20260;-61
2022/12/23 05:08:34;;;;;;;;;;;25.50;99.90;;;;;;5015817;28;20051;-61
2022/12/23 05:11:00;;;;;;;;;;;25.80;99.90;;;;;;5015737;28;20367;-67
2022/12/23 05:13:27;;;;;;;;;;;26.00;99.90;;;;;;5015855;28;19909;-61
2022/12/23 05:15:54;;;;;;;;;;;26.00;99.90;;;;;;5015685;28;19914;-61
2022/12/23 05:18:21;;;;;;;;;;;26.00;99.90;;;;;;5015672;28;19909;-62
2022/12/23 05:20:48;;;;;;;;;;;25.90;99.90;;;;;;5015430;28;19909;-73
2022/12/23 05:23:15;;;;;;;;;;;26.00;99.90;;;;;;5015468;28;20283;-69
2022/12/23 05:25:42;;;;;;;;;;;25.90;99.90;;;;;;5015662;28;20368;-61
2022/12/23 05:28:08;;;;;;;;;;;25.80;99.90;;;;;;5015561;28;19910;-61
2022/12/23 05:30:35;;;;;;;;;;;25.50;99.90;;;;;;5015586;28;19929;-69
2022/12/23 05:33:02;;;;;;;;;;;25.70;99.90;;;;;;5015572;28;19933;-61
2022/12/23 05:35:28;;;;;;;;;;;25.60;99.90;;;;;;5014904;28;19910;-61
2022/12/23 05:37:56;;;;;;;;;;;25.60;99.90;;;;;;5015276;28;19910;-61
2022/12/23 05:40:23;;;;;;;;;;;25.40;99.90;;;;;;5015339;28;19917;-71
2022/12/23 05:42:50;;;;;;;;;;;25.20;99.90;;;;;;5015310;28;20380;-61
2022/12/23 05:45:17;;;;;;;;;;;25.10;99.90;;;;;;5014904;28;20352;-65
2022/12/23 05:47:43;;;;;;;;;;;25.10;99.90;;;;;;5015242;28;19917;-61
2022/12/23 05:50:10;;;;;;;;;;;25.20;99.90;;;;;;5015091;28;19909;-61
2022/12/23 05:52:37;;;;;;;;;;;25.20;99.90;;;;;;5012280;28;19944;-61
2022/12/23 05:55:04;;;;;;;;;;;25.20;99.90;;;;;;5013095;28;20265;-74
2022/12/23 05:57:31;;;;;;;;;;;25.10;99.90;;;;;;5012901;28;20283;-66
2022/12/23 05:59:58;;;;;;;;;;;25.10;99.90;;;;;;5013102;28;19921;-69
2022/12/23 06:02:24;;;;;;;;;;;25.20;99.90;;;;;;5012730;28;19972;-61
2022/12/23 06:04:51;;;;;;;;;;;25.20;99.90;;;;;;5012110;28;19914;-70
2022/12/23 06:07:18;;;;;;;;;;;25.20;99.90;;;;;;5012443;28;19941;-72
2022/12/23 06:09:44;;;;;;;;;;;25.20;99.90;;;;;;5012646;28;19910;-66
2022/12/23 06:12:11;;;;;;;;;;;25.20;99.90;;;;;;5012664;28;19916;-73
2022/12/23 06:14:37;;;;;;;;;;;25.00;99.90;;;;;;5012363;28;19910;-72
2022/12/23 06:17:04;;;;;;;;;;;24.90;99.90;;;;;;5012208;28;19917;-74
2022/12/23 06:19:31;;;;;;;;;;;24.80;99.90;;;;;;4994853;28;19921;-66
2022/12/23 06:21:57;;;;;;;;;;;24.60;99.90;;;;;;5012315;28;19932;-61
2022/12/23 06:24:24;;;;;;;;;;;24.60;99.90;;;;;;5012399;28;20439;-63
2022/12/23 06:26:51;;;;;;;;;;;24.60;99.90;;;;;;5012443;28;19910;-67
2022/12/23 06:29:18;;;;;;;;;;;24.40;99.90;;;;;;5012146;28;19910;-61
2022/12/23 06:31:44;;;;;;;;;;;24.40;99.90;;;;;;5011959;28;19913;-71
2022/12/23 06:34:11;;;;;;;;;;;24.50;99.90;;;;;;5012299;28;20004;-61
2022/12/23 06:36:38;;;;;;;;;;;24.40;99.90;;;;;;5012215;28;20052;-77
2022/12/23 06:39:04;;;;;;;;;;;24.50;99.90;;;;;;5012220;28;20320;-69
2022/12/23 06:41:31;;;;;;;;;;;24.50;99.90;;;;;;5011861;28;19997;-62
2022/12/23 06:43:58;;;;;;;;;;;24.50;99.90;;;;;;5011965;28;19917;-72
2022/12/23 06:46:24;;;;;;;;;;;24.40;99.90;;;;;;5012250;28;19920;-62
2022/12/23 06:48:51;;;;;;;;;;;24.40;99.90;;;;;;5012188;28;19909;-70
2022/12/23 06:51:17;;;;;;;;;;;24.50;99.90;;;;;;5011755;28;19916;-61
2022/12/23 06:53:44;;;;;;;;;;;24.60;99.90;;;;;;5011747;28;19921;-64
2022/12/23 06:56:11;;;;;;;;;;;24.50;99.90;;;;;;5011281;28;19957;-65
2022/12/23 06:58:37;;;;;;;;;;;24.60;99.90;;;;;;5011757;28;20463;-71
2022/12/23 07:01:04;;;;;;;;;;;24.60;99.90;;;;;;5011778;28;19935;-67
2022/12/23 07:03:31;;;;;;;;;;;24.50;99.90;;;;;;5011712;28;19925;-64
2022/12/23 07:05:58;;;;;;;;;;;24.40;99.90;;;;;;5011836;28;19913;-61
2022/12/23 07:08:25;;;;;;;;;;;24.30;99.90;;;;;;5011901;28;19926;-61
2022/12/23 07:10:56;;;;;;;;;;;24.30;99.90;;;;;;5011559;28;20403;-63
2022/12/23 07:13:23;;;;;;;;;;;24.20;99.90;;;;;;5011378;28;19909;-66
2022/12/23 07:15:50;;;;;;;;;;;24.10;99.90;;;;;;5011823;28;19910;-66
2022/12/23 07:18:16;;;;;;;;;;;24.00;99.90;;;;;;5011708;28;20366;-68
2022/12/23 07:20:43;;;;;;;;;;;24.00;99.90;;;;;;5011367;28;20360;-61
2022/12/23 07:23:10;;;;;;;;;;;24.00;99.90;;;;;;5011214;28;19917;-68
2022/12/23 07:25:36;;;;;;;;;;;23.90;99.90;;;;;;5011256;28;19968;-71
2022/12/23 07:28:03;;;;;;;;;;;23.90;99.90;;;;;;5011155;28;19913;-72
2022/12/23 07:30:29;;;;;;;;;;;23.90;99.90;;;;;;5011504;28;19909;-70
2022/12/23 07:32:56;;;;;;;;;;;23.90;99.90;;;;;;5011376;28;19924;-61
2022/12/23 07:35:23;;;;;;;;;;;24.10;99.90;;;;;;5010724;28;19960;-62
2022/12/23 07:37:54;;;;;;;;;;;24.10;99.90;;;;;;5011205;28;19913;-62
2022/12/23 07:40:24;;;;;;;;;;;23.90;99.90;;;;;;5011316;28;19909;-68
2022/12/23 07:42:54;;;;;;;;;;;23.90;99.90;;;;;;5011166;28;19975;-61
2022/12/23 07:45:21;;;;;;;;;;;23.90;99.90;;;;;;5011355;28;19916;-61
2022/12/23 07:47:51;;;;;;;;;;;23.70;99.90;;;;;;5011488;28;19987;-72
2022/12/23 07:50:18;;;;;;;;;;;23.70;99.90;;;;;;5011102;28;19941;-70
2022/12/23 07:52:44;;;;;;;;;;;23.70;99.90;;;;;;5013046;28;20399;-65
2022/12/23 07:55:11;;;;;;;;;;;23.60;99.90;;;;;;5012876;28;19940;-61
2022/12/23 07:57:39;;;;;;;;;;;23.60;99.90;;;;;;5012342;28;19913;-72
2022/12/23 08:00:06;;;;;;;;;;;23.60;99.90;;;;;;5011995;28;19933;-76
2022/12/23 08:02:33;;;;;;;;;;;23.70;99.90;;;;;;5010943;28;20339;-74
2022/12/23 08:05:00;;;;;;;;;;;23.70;99.90;;;;;;5010924;28;19917;-66
2022/12/23 08:07:27;;;;;;;;;;;23.60;99.90;;;;;;5010687;28;19964;-76
2022/12/23 08:09:54;;;;;;;;;;;23.60;99.90;;;;;;5013604;28;19960;-72
2022/12/23 08:12:20;;;;;;;;;;;23.50;99.90;;;;;;5017256;28;19909;-75
2022/12/23 08:14:51;;;;;;;;;;;23.50;99.90;;;;;;5016914;28;19964;-77
2022/12/23 08:17:20;;;;;;;;;;;23.50;99.90;;;;;;5016990;28;19913;-65
2022/12/23 08:19:47;;;;;;;;;;;23.40;99.90;;;;;;5017302;28;20354;-67
2022/12/23 08:22:13;;;;;;;;;;;23.40;99.90;;;;;;5017134;28;20326;-69
2022/12/23 08:24:40;;;;;;;;;;;23.30;99.90;;;;;;5017350;28;19917;-72
2022/12/23 08:27:07;;;;;;;;;;;23.30;99.90;;;;;;5017518;28;19921;-73
2022/12/23 08:29:33;;;;;;;;;;;23.30;99.90;;;;;;5016945;28;19917;-61
2022/12/23 08:32:00;;;;;;;;;;;23.30;99.90;;;;;;5016950;28;19916;-63
2022/12/23 08:34:27;;;;;;;;;;;23.30;99.90;;;;;;5016601;28;20268;-68
2022/12/23 08:36:53;;;;;;;;;;;23.20;99.90;;;;;;5016678;28;20373;-66
2022/12/23 08:39:20;;;;;;;;;;;23.20;99.90;;;;;;5016352;28;19955;-61
2022/12/23 08:41:47;;;;;;;;;;;23.30;99.90;;;;;;5016484;28;20030;-69
2022/12/23 08:44:14;;;;;;;;;;;23.20;99.90;;;;;;5016479;28;19913;-61
2022/12/23 08:46:41;;;;;;;;;;;23.20;99.90;;;;;;5016515;28;20302;-64
2022/12/23 08:49:08;;;;;;;;;;;23.20;99.90;;;;;;5016193;28;19916;-77
2022/12/23 08:51:35;;;;;;;;;;;23.20;99.90;;;;;;5015964;28;19910;-68
2022/12/23 08:54:02;;;;;;;;;;;23.20;99.90;;;;;;5016127;28;19967;-61
2022/12/23 08:56:30;;;;;;;;;;;23.20;99.90;;;;;;5016439;28;19913;-66
2022/12/23 08:58:58;;;;;;;;;;;23.10;99.90;;;;;;5016290;28;20356;-67
2022/12/23 09:01:25;;;;;;;;;;;23.10;99.90;;;;;;5015872;28;19909;-69
2022/12/23 09:03:52;;;;;;;;;;;23.00;99.90;;;;;;5015991;28;19914;-62
2022/12/23 09:06:20;;;;;;;;;;;23.00;99.90;;;;;;5016073;28;19913;-63
2022/12/23 09:08:47;;;;;;;;;;;23.00;99.90;;;;;;5016170;28;20372;-63
2022/12/23 09:11:15;;;;;;;;;;;23.00;99.90;;;;;;5016080;28;19909;-61
2022/12/23 09:13:42;;;;;;;;;;;23.10;99.90;;;;;;5016027;28;19909;-70
2022/12/23 09:16:09;;;;;;;;;;;23.00;99.90;;;;;;5015877;28;19940;-70
2022/12/23 09:18:36;;;;;;;;;;;23.00;99.90;;;;;;5015768;28;19952;-76
2022/12/23 09:21:04;;;;;;;;;;;23.00;99.90;;;;;;5015320;28;19917;-75
2022/12/23 09:23:31;;;;;;;;;;;23.00;99.90;;;;;;5015517;28;19917;-71
2022/12/23 09:25:58;;;;;;;;;;;22.90;99.90;;;;;;5015903;28;20051;-71
2022/12/23 09:28:25;;;;;;;;;;;23.00;99.90;;;;;;5015834;28;19910;-71
2022/12/23 09:30:52;;;;;;;;;;;22.90;99.90;;;;;;5015632;28;19909;-66
2022/12/23 09:33:18;;;;;;;;;;;23.00;99.90;;;;;;5015320;28;19931;-71
2022/12/23 09:35:45;;;;;;;;;;;22.90;99.90;;;;;;5015570;28;19956;-74
2022/12/23 09:38:12;;;;;;;;;;;22.90;99.90;;;;;;5015505;28;20055;-71
2022/12/23 09:40:39;;;;;;;;;;;22.90;99.90;;;;;;5015804;28;19916;-66
2022/12/23 09:43:06;;;;;;;;;;;22.90;99.90;;;;;;5015732;28;19924;-77
2022/12/23 09:45:53;;;;;;;;;;;22.90;99.90;;;;;;5015516;28;19909;-71
2022/12/23 09:48:24;;;;;;;;;;;23.00;99.90;;;;;;5001796;28;20380;-74
2022/12/23 09:50:51;;;;;;;;;;;23.00;99.90;;;;;;5015821;28;19910;-66
2022/12/23 09:53:19;;;;;;;;;;;23.00;99.90;;;;;;5015321;28;20016;-67
2022/12/23 09:56:04;;;;;;;;;;;23.00;99.90;;;;;;5015601;28;19937;-70
2022/12/23 09:59:03;;;;;;;;;;;22.90;99.90;;;;;;5015577;28;20356;-67
2022/12/23 10:01:29;;;;;;;;;;;22.90;99.90;;;;;;4971779;28;20000;-64
2022/12/23 10:04:14;;;;;;;;;;;22.90;99.90;;;;;;5015190;28;20282;-64
2022/12/23 10:06:42;;;;;;;;;;;22.90;99.90;;;;;;5015371;28;19909;-76
2022/12/23 10:09:09;;;;;;;;;;;22.80;99.90;;;;;;5015486;28;20328;-77
2022/12/23 10:11:39;;;;;;;;;;;22.80;99.90;;;;;;5015057;28;20000;-78
2022/12/23 10:14:09;;;;;;;;;;;22.90;99.90;;;;;;5015304;28;19964;-78
2022/12/23 10:16:39;;;;;;;;;;;22.80;99.90;;;;;;5015159;28;20344;-78
2022/12/23 10:19:14;;;;;;;;;;;22.80;99.90;;;;;;5015229;28;19920;-74
2022/12/23 10:21:40;;;;;;;;;;;22.80;99.90;;;;;;5014871;28;19929;-62
2022/12/23 10:24:12;;;;;;;;;;;22.80;99.90;;;;;;5014930;28;19913;-74
2022/12/23 10:26:59;;;;;;;;;;;22.70;99.90;;;;;;5015006;28;19916;-65
2022/12/23 10:29:29;;;;;;;;;;;22.70;99.90;;;;;;5014234;28;20036;-67
2022/12/23 10:32:05;;;;;;;;;;;22.70;99.90;;;;;;5014030;28;19917;-71
2022/12/23 10:34:39;;;;;;;;;;;22.70;99.90;;;;;;5014853;28;19910;-65
2022/12/23 10:37:14;;;;;;;;;;;22.70;99.90;;;;;;5014886;28;19956;-66
2022/12/23 10:39:47;;;;;;;;;;;22.70;99.90;;;;;;5014797;28;19917;-65
2022/12/23 10:42:16;;;;;;;;;;;22.60;99.90;;;;;;5014650;28;19985;-66
2022/12/23 10:45:03;;;;;;;;;;;22.60;99.90;;;;;;5014744;28;19909;-65
2022/12/23 10:47:45;;;;;;;;;;;22.60;99.90;;;;;;5000889;28;19968;-64
2022/12/23 10:50:14;;;;;;;;;;;22.50;99.90;;;;;;5014440;28;19910;-72
2022/12/23 10:52:43;;;;;;;;;;;22.50;99.90;;;;;;5014413;28;20413;-73
2022/12/23 10:55:37;;;;;;;;;;;22.40;99.90;;;;;;5014566;28;19914;-76
2022/12/23 10:58:15;;;;;;;;;;;22.40;99.90;;;;;;5011455;28;19964;-68
2022/12/23 11:00:43;;;;;;;;;;;22.40;99.90;;;;;;5014453;28;20356;-64
2022/12/23 11:03:22;;;;;;;;;;;22.40;99.90;;;;;;5014338;28;19964;-61
2022/12/23 11:05:50;;;;;;;;;;;22.40;99.90;;;;;;4996729;28;19909;-66
2022/12/23 11:08:17;;;;;;;;;;;22.40;99.90;;;;;;5014158;28;19910;-61
2022/12/23 11:10:44;;;;;;;;;;;22.40;99.90;;;;;;5014157;28;20310;-73
2022/12/23 11:13:22;;;;;;;;;;;22.40;99.90;;;;;;5014127;28;19910;-77
2022/12/23 11:15:48;;;;;;;;;;;22.40;99.90;;;;;;5014098;28;19909;-69
2022/12/23 11:18:19;;;;;;;;;;;22.40;99.90;;;;;;5013879;28;20291;-72
2022/12/23 11:21:00;;;;;;;;;;;22.40;99.90;;;;;;5014049;28;20279;-67
2022/12/23 11:23:29;;;;;;;;;;;22.40;99.90;;;;;;5013593;28;19924;-74
2022/12/23 11:26:06;;;;;;;;;;;22.40;99.90;;;;;;5013932;28;19949;-64
2022/12/23 11:28:35;;;;;;;;;;;22.40;99.90;;;;;;5013983;28;19917;-68
2022/12/23 11:31:06;;;;;;;;;;;22.40;99.90;;;;;;5014099;28;20252;-64
2022/12/23 11:33:40;;;;;;;;;;;22.40;99.90;;;;;;5013517;28;19916;-65
2022/12/23 11:36:07;;;;;;;;;;;22.30;99.90;;;;;;5013752;28;20004;-68
2022/12/23 11:38:35;;;;;;;;;;;22.30;99.90;;;;;;5013961;28;19932;-63
2022/12/23 11:41:03;;;;;;;;;;;22.30;99.90;;;;;;5013778;28;19909;-68
2022/12/23 11:43:30;;;;;;;;;;;22.30;99.90;;;;;;4995591;28;20011;-63
2022/12/23 11:46:13;;;;;;;;;;;22.30;99.90;;;;;;5013738;28;19937;-69
2022/12/23 11:48:40;;;;;;;;;;;22.30;99.90;;;;;;5013477;28;19910;-68
2022/12/23 11:51:07;;;;;;;;;;;22.30;99.90;;;;;;5013525;28;19913;-69
2022/12/23 11:53:35;;;;;;;;;;;22.30;99.90;;;;;;5013220;28;20372;-69
2022/12/23 11:56:05;;;;;;;;;;;22.30;99.90;;;;;;5013448;28;19921;-68
2022/12/23 11:58:39;;;;;;;;;;;22.30;99.90;;;;;;5006928;28;20299;-78
2022/12/23 12:01:07;;;;;;;;;;;22.30;99.90;;;;;;5004594;28;19944;-73
2022/12/23 12:03:35;;;;;;;;;;;22.30;99.90;;;;;;5004522;28;19925;-64
2022/12/23 12:06:04;;;;;;;;;;;22.20;99.90;;;;;;5004666;28;19914;-70
2022/12/23 12:08:35;;;;;;;;;;;22.20;99.90;;;;;;5004470;28;19920;-74
2022/12/23 12:11:05;;;;;;;;;;;22.20;99.90;;;;;;5004333;28;20305;-77
2022/12/23 12:13:36;;;;;;;;;;;22.20;99.90;;;;;;5004623;28;20008;-71
2022/12/23 12:16:21;;;;;;;;;;;22.10;99.90;;;;;;5004814;28;19913;-81
2022/12/23 12:18:48;;;;;;;;;;;22.00;99.90;;;;;;5004729;28;19948;-71
2022/12/23 12:21:18;;;;;;;;;;;22.00;99.90;;;;;;5004236;28;19924;-66
2022/12/23 12:23:49;;;;;;;;;;;22.00;99.90;;;;;;5004375;28;19924;-72
2022/12/23 12:26:25;;;;;;;;;;;21.90;99.90;;;;;;5004407;28;19913;-67
2022/12/23 12:29:15;;;;;;;;;;;22.00;99.90;;;;;;5004476;28;19976;-69
2022/12/23 12:31:47;;;;;;;;;;;21.90;99.90;;;;;;4994020;28;19921;-77
2022/12/23 12:34:32;;;;;;;;;;;21.90;99.90;;;;;;5004187;28;20304;-75
2022/12/23 12:37:17;;;;;;;;;;;21.90;99.90;;;;;;5004134;28;19920;-67
2022/12/23 12:39:56;;;;;;;;;;;22.00;99.90;;;;;;5004609;28;19938;-65
2022/12/23 12:42:23;;;;;;;;;;;21.90;99.90;;;;;;5004406;28;20635;-69
2022/12/23 12:44:58;;;;;;;;;;;21.90;99.90;;;;;;5004631;28;19914;-74
2022/12/23 12:47:32;;;;;;;;;;;21.90;99.90;;;;;;5006640;28;19983;-75
2022/12/23 12:50:01;;;;;;;;;;;21.90;99.90;;;;;;5004560;28;20000;-71
2022/12/23 12:52:31;;;;;;;;;;;21.90;99.90;;;;;;5005665;28;20027;-70
2022/12/23 12:55:01;;;;;;;;;;;21.90;99.90;;;;;;5004964;28;20017;-75
2022/12/23 12:57:29;;;;;;;;;;;21.90;99.90;;;;;;5008129;28;20291;-70
2022/12/23 12:59:57;;;;;;;;;;;21.80;99.90;;;;;;5008465;28;20156;-66
2022/12/23 13:02:36;;;;;;;;;;;21.80;99.90;;;;;;5007951;28;20043;-64
2022/12/23 13:05:21;;;;;;;;;;;21.80;99.90;;;;;;5007929;28;19914;-73
2022/12/23 13:07:50;;;;;;;;;;;21.80;99.90;;;;;;5008152;28;19921;-75
2022/12/23 13:10:19;;;;;;;;;;;21.90;99.90;;;;;;5007979;28;20251;-65
2022/12/23 13:12:46;;;;;;;;;;;21.90;99.90;;;;;;5008046;28;19945;-74
2022/12/23 13:15:19;;;;;;;;;;;21.90;99.90;;;;;;5008124;28;20350;-69
2022/12/23 13:18:10;;;;;;;;;;;21.80;99.90;;;;;;5007155;28;19913;-67
2022/12/23 13:20:42;;;;;;;;;;;21.80;99.90;;;;;;5008700;28;20287;-73
2022/12/23 13:23:20;;;;;;;;;;;21.80;99.90;;;;;;5007713;28;20497;-79
2022/12/23 13:25:53;;;;;;;;;;;21.80;99.90;;;;;;5007402;28;19960;-75
2022/12/23 13:28:39;;;;;;;;;;;21.80;99.90;;;;;;5007537;28;20336;-70
2022/12/23 13:31:24;;;;;;;;;;;21.90;99.90;;;;;;5006837;28;20026;-74
2022/12/23 13:33:56;;;;;;;;;;;21.90;99.90;;;;;;5007035;28;19960;-75
2022/12/23 13:36:35;;;;;;;;;;;21.80;99.90;;;;;;5007515;28;19913;-65
2022/12/23 13:39:20;;;;;;;;;;;21.80;99.90;;;;;;5007102;28;19914;-76
2022/12/23 13:41:49;;;;;;;;;;;21.80;99.90;;;;;;5005908;28;19949;-70
2022/12/23 13:44:17;;;;;;;;;;;21.90;99.90;;;;;;5006834;28;19917;-77
2022/12/23 13:47:02;;;;;;;;;;;21.80;99.90;;;;;;5013439;28;20311;-66
2022/12/23 13:49:28;;;;;;;;;;;21.80;99.90;;;;;;5015493;28;19916;-65
2022/12/23 13:52:13;;;;;;;;;;;21.80;99.90;;;;;;5015696;28;20323;-61
2022/12/23 13:54:46;;;;;;;;;;;21.80;99.90;;;;;;4976695;28;19976;-67
2022/12/23 13:57:31;;;;;;;;;;;21.70;99.90;;;;;;4991732;28;19996;-60
2022/12/23 13:59:59;;;;;;;;;;;21.70;99.90;;;;;;4976956;28;20393;-65
2022/12/23 14:02:35;;;;;;;;;;;21.70;99.90;;;;;;4976447;28;19925;-61
2022/12/23 14:05:02;;;;;;;;;;;21.70;99.90;;;;;;4976596;28;20026;-61
2022/12/23 14:07:30;;;;;;;;;;;21.70;99.90;;;;;;4976543;28;20379;-60
2022/12/23 14:09:58;;;;;;;;;;;21.70;99.90;;;;;;4976348;28;19910;-60
2022/12/23 14:12:30;;;;;;;;;;;21.70;99.90;;;;;;4976483;28;19910;-60
2022/12/23 14:14:59;;;;;;;;;;;21.60;99.90;;;;;;4976327;28;19911;-60
2022/12/23 14:17:48;;;;;;;;;;;21.60;99.90;;;;;;4975969;28;19993;-69
2022/12/23 14:20:41;;;;;;;;;;;21.60;99.90;;;;;;4976355;28;19914;-62
2022/12/23 14:23:17;;;;;;;;;;;21.60;99.90;;;;;;4973083;28;19996;-64
2022/12/23 14:25:50;;;;;;;;;;;21.60;99.90;;;;;;4976089;28;19910;-66
2022/12/23 14:28:37;;;;;;;;;;;21.50;99.90;;;;;;4976278;28;20360;-63
2022/12/23 14:31:04;;;;;;;;;;;21.60;99.90;;;;;;4976136;28;19910;-62
2022/12/23 14:33:35;;;;;;;;;;;21.50;99.90;;;;;;4975751;28;20377;-60
2022/12/23 14:36:21;;;;;;;;;;;21.50;99.90;;;;;;4975800;28;19910;-61
2022/12/23 14:39:06;;;;;;;;;;;21.60;99.90;;;;;;4975953;28;19916;-61
2022/12/23 14:41:37;;;;;;;;;;;21.50;99.90;;;;;;4975848;28;19938;-62
2022/12/23 14:44:17;;;;;;;;;;;21.50;99.90;;;;;;4976713;28;19960;-61
2022/12/23 14:46:44;;;;;;;;;;;21.50;99.90;;;;;;4976521;28;19910;-61
2022/12/23 14:49:20;;;;;;;;;;;21.50;99.90;;;;;;4976336;28;19910;-61
2022/12/23 14:51:50;;;;;;;;;;;21.50;99.90;;;;;;4976033;28;19910;-61
2022/12/23 14:54:17;;;;;;;;;;;21.40;99.90;;;;;;5011614;28;20356;-61
2022/12/23 14:56:46;;;;;;;;;;;21.40;99.90;;;;;;5015226;28;19932;-61
2022/12/23 14:59:27;;;;;;;;;;;21.40;99.90;;;;;;5014980;28;19909;-61
2022/12/23 15:02:00;;;;;;;;;;;21.40;99.90;;;;;;5014582;28;19964;-60